Time;durP1;ratioP1;P1;durP2;ratioP2;P2;SDS_P1;SDS_P2;PMS_P1;PMS_P2;Temp;Humidity;BMP_temperature;BMP_pressure;BME280_temperature;BME280_humidity;BME280_pressure;Samples;Min_cycle;Max_cycle;Signal;HPM_P1;HPM_P2
2021/01/29 00:00:44;;;;;;;5.40;3.08;;;10.80;99.90;;;;;;5027018;28;20047;-58
2021/01/29 00:03:16;;;;;;;6.25;2.70;;;10.80;99.90;;;;;;5027333;28;20103;-58
2021/01/29 00:05:51;;;;;;;4.85;2.50;;;10.70;99.90;;;;;;5027657;28;20036;-57
2021/01/29 00:08:17;;;;;;;6.05;2.00;;;10.70;99.90;;;;;;5025499;28;20025;-57
2021/01/29 00:10:43;;;;;;;24.83;12.50;;;10.70;99.90;;;;;;5027698;28;20063;-61
2021/01/29 00:13:10;;;;;;;27.33;12.90;;;10.60;99.90;;;;;;5026555;28;20688;-60
2021/01/29 00:15:36;;;;;;;15.60;8.40;;;10.70;99.90;;;;;;5027932;28;20029;-58
2021/01/29 00:18:03;;;;;;;10.55;4.85;;;10.70;99.90;;;;;;5025617;28;20033;-60
2021/01/29 00:20:29;;;;;;;12.55;8.35;;;10.70;99.90;;;;;;5027776;28;20040;-59
2021/01/29 00:22:56;;;;;;;11.15;6.80;;;10.70;99.90;;;;;;5026213;28;20514;-58
2021/01/29 00:25:33;;;;;;;41.95;29.52;;;10.70;99.90;;;;;;5026657;28;20057;-59
2021/01/29 00:27:59;;;;;;;20.20;14.75;;;10.60;99.90;;;;;;5026708;28;20604;-59
2021/01/29 00:30:26;;;;;;;22.15;17.90;;;10.70;99.90;;;;;;5026908;28;20038;-60
2021/01/29 00:32:53;;;;;;;10.35;6.45;;;10.70;99.90;;;;;;5025812;28;20108;-58
2021/01/29 00:35:21;;;;;;;9.93;4.15;;;10.70;99.90;;;;;;5027059;28;20164;-59
2021/01/29 00:37:47;;;;;;;3.15;1.45;;;10.70;99.90;;;;;;5024544;28;20394;-58
2021/01/29 00:40:14;;;;;;;3.45;1.77;;;10.60;99.90;;;;;;5026801;28;20033;-59
2021/01/29 00:42:40;;;;;;;9.25;4.25;;;10.60;99.90;;;;;;5027148;28;20581;-60
2021/01/29 00:45:08;;;;;;;4.13;1.85;;;10.70;99.90;;;;;;5031189;28;20104;-59
2021/01/29 00:47:34;;;;;;;3.33;1.60;;;10.70;99.90;;;;;;5033071;28;20041;-59
2021/01/29 00:50:00;;;;;;;6.32;2.60;;;10.70;99.90;;;;;;5035250;28;20030;-59
2021/01/29 00:52:25;;;;;;;5.47;3.15;;;10.60;99.90;;;;;;5034286;28;20040;-59
2021/01/29 00:54:51;;;;;;;3.75;2.30;;;10.70;99.90;;;;;;5034810;28;20055;-59
2021/01/29 00:57:17;;;;;;;5.00;1.40;;;10.70;99.90;;;;;;5033387;28;20029;-58
2021/01/29 00:59:42;;;;;;;3.40;1.67;;;10.60;99.90;;;;;;5034915;28;20535;-60
2021/01/29 01:02:08;;;;;;;2.50;1.50;;;10.70;99.90;;;;;;5033466;28;20044;-59
2021/01/29 01:04:34;;;;;;;3.83;1.80;;;10.70;99.90;;;;;;5035742;28;20083;-58
2021/01/29 01:06:59;;;;;;;4.65;1.55;;;10.70;99.90;;;;;;5032311;28;20420;-60
2021/01/29 01:09:25;;;;;;;3.00;1.20;;;10.60;99.90;;;;;;5035065;28;20057;-58
2021/01/29 01:11:51;;;;;;;2.00;1.13;;;10.60;99.90;;;;;;5033794;28;20558;-59
2021/01/29 01:14:17;;;;;;;6.03;1.40;;;10.60;99.90;;;;;;5042550;28;20026;-60
2021/01/29 01:16:44;;;;;;;3.25;1.40;;;10.70;99.90;;;;;;5032496;28;20084;-59
2021/01/29 01:19:09;;;;;;;4.25;1.83;;;10.70;99.90;;;;;;5035536;28;20037;-60
2021/01/29 01:21:35;;;;;;;5.55;1.30;;;10.70;99.90;;;;;;5048024;28;20040;-58
2021/01/29 01:24:01;;;;;;;1.55;0.90;;;10.70;99.90;;;;;;5040704;28;20457;-59
2021/01/29 01:26:26;;;;;;;1.88;1.17;;;10.60;99.90;;;;;;5032526;28;20478;-59
2021/01/29 01:28:52;;;;;;;7.20;2.70;;;10.60;99.90;;;;;;5045010;28;20025;-59
2021/01/29 01:31:18;;;;;;;2.50;0.98;;;10.50;99.90;;;;;;5033938;28;20057;-58
2021/01/29 01:33:43;;;;;;;7.75;3.83;;;10.50;99.90;;;;;;5039289;28;20036;-59
2021/01/29 01:36:09;;;;;;;7.70;4.65;;;10.50;99.90;;;;;;5033103;28;20053;-57
2021/01/29 01:38:35;;;;;;;7.30;2.53;;;10.50;99.90;;;;;;5034312;28;20068;-58
2021/01/29 01:41:01;;;;;;;6.80;3.83;;;10.60;99.90;;;;;;5033711;28;20364;-60
2021/01/29 01:43:26;;;;;;;10.05;4.78;;;10.60;99.90;;;;;;5031870;28;20112;-59
2021/01/29 01:46:16;;;;;;;7.85;2.67;;;10.60;99.90;;;;;;5033908;28;20037;-58
2021/01/29 01:48:48;;;;;;;11.00;5.00;;;10.60;99.90;;;;;;5036658;28;20056;-59
2021/01/29 01:51:45;;;;;;;10.93;6.10;;;10.70;99.90;;;;;;5037620;28;20087;-59
2021/01/29 01:54:30;;;;;;;6.68;2.60;;;10.70;99.90;;;;;;5029426;28;20052;-58
2021/01/29 01:56:59;;;;;;;6.72;2.55;;;10.70;99.90;;;;;;5033186;28;20037;-58
2021/01/29 01:59:38;;;;;;;7.70;3.28;;;10.70;99.90;;;;;;5037617;28;20108;-58
2021/01/29 02:02:06;;;;;;;11.20;4.35;;;10.70;99.90;;;;;;5037215;28;20041;-58
2021/01/29 02:04:36;;;;;;;13.20;5.28;;;10.70;99.90;;;;;;5037981;28;20110;-58
2021/01/29 02:07:20;;;;;;;7.20;2.53;;;10.70;99.90;;;;;;5034714;28;20047;-58
2021/01/29 02:09:49;;;;;;;11.77;3.53;;;10.70;99.90;;;;;;5033812;28;20079;-58
2021/01/29 02:12:15;;;;;;;13.32;3.13;;;10.80;99.90;;;;;;5032540;28;20056;-58
2021/01/29 02:14:41;;;;;;;11.68;2.70;;;10.80;99.90;;;;;;5034154;28;20037;-58
2021/01/29 02:17:15;;;;;;;10.00;2.25;;;10.70;99.90;;;;;;5032525;28;20022;-58
2021/01/29 02:20:12;;;;;;;15.52;2.92;;;10.70;99.90;;;;;;5039131;28;20069;-60
2021/01/29 02:23:12;;;;;;;13.13;2.95;;;10.70;99.90;;;;;;5036009;28;20021;-59
2021/01/29 02:25:53;;;;;;;15.15;3.30;;;10.70;99.90;;;;;;5032834;28;20042;-59
2021/01/29 02:28:57;;;;;;;18.05;3.95;;;10.70;99.90;;;;;;5032956;28;20545;-58
2021/01/29 02:31:51;;;;;;;18.35;3.55;;;10.60;99.90;;;;;;5047795;28;20055;-58
2021/01/29 02:34:54;;;;;;;21.40;5.22;;;10.60;99.90;;;;;;5037059;28;20033;-59
2021/01/29 02:37:38;;;;;;;20.05;3.72;;;10.60;99.90;;;;;;5020856;28;20491;-58
2021/01/29 02:40:22;;;;;;;20.65;3.95;;;10.60;99.90;;;;;;5033797;28;20384;-59
2021/01/29 02:43:06;;;;;;;18.55;3.45;;;10.50;99.90;;;;;;5032145;28;20480;-58
2021/01/29 02:45:49;;;;;;;15.70;3.78;;;10.50;99.90;;;;;;5032336;28;20036;-58
2021/01/29 02:48:45;;;;;;;18.75;3.80;;;10.50;99.90;;;;;;5033730;28;20033;-59
2021/01/29 02:51:23;;;;;;;28.27;4.78;;;10.50;99.90;;;;;;5032472;28;20041;-59
2021/01/29 02:53:56;;;;;;;24.02;4.30;;;10.50;99.90;;;;;;5039249;28;20529;-58
2021/01/29 02:56:34;;;;;;;23.65;4.20;;;10.40;99.90;;;;;;5036096;28;20128;-58
2021/01/29 02:59:08;;;;;;;22.88;4.07;;;10.40;99.90;;;;;;5042323;28;20037;-59
2021/01/29 03:01:52;;;;;;;20.88;3.78;;;10.40;99.90;;;;;;5037403;28;20436;-59
2021/01/29 03:04:28;;;;;;;28.13;4.82;;;10.40;99.90;;;;;;5036186;28;20033;-60
2021/01/29 03:06:58;;;;;;;30.20;4.72;;;10.40;99.90;;;;;;5040694;28;20036;-58
2021/01/29 03:09:27;;;;;;;26.67;4.63;;;10.40;99.90;;;;;;5036815;28;20037;-57
2021/01/29 03:12:05;;;;;;;30.88;5.28;;;10.40;99.90;;;;;;5039684;28;20025;-57
2021/01/29 03:14:38;;;;;;;35.40;5.32;;;10.40;99.90;;;;;;5034658;28;20022;-58
2021/01/29 03:17:15;;;;;;;26.85;4.93;;;10.30;99.90;;;;;;5030359;28;20462;-58
2021/01/29 03:20:07;;;;;;;25.77;4.80;;;10.30;99.90;;;;;;5031463;28;20046;-60
2021/01/29 03:22:43;;;;;;;27.88;5.25;;;10.30;99.90;;;;;;5030747;28;20047;-59
2021/01/29 03:25:20;;;;;;;27.70;5.53;;;10.30;99.90;;;;;;5028991;28;20059;-58
2021/01/29 03:27:51;;;;;;;31.85;4.97;;;10.30;99.90;;;;;;5018339;28;20037;-58
2021/01/29 03:30:23;;;;;;;33.63;6.15;;;10.20;99.90;;;;;;5031932;28;20079;-56
2021/01/29 03:32:51;;;;;;;36.97;5.18;;;10.10;99.90;;;;;;5032865;28;20029;-60
2021/01/29 03:35:26;;;;;;;33.63;5.40;;;10.10;99.90;;;;;;5045814;28;20502;-57
2021/01/29 03:38:15;;;;;;;38.13;5.63;;;10.10;99.90;;;;;;5031126;28;20038;-58
2021/01/29 03:40:44;;;;;;;38.75;6.00;;;10.10;99.90;;;;;;5023956;28;20079;-59
2021/01/29 03:43:32;;;;;;;39.92;6.50;;;10.00;99.90;;;;;;5031800;28;20414;-57
2021/01/29 03:46:14;;;;;;;36.05;5.75;;;10.00;99.90;;;;;;5036867;28;20039;-59
2021/01/29 03:48:51;;;;;;;36.78;6.32;;;10.00;99.90;;;;;;5037221;28;20095;-59
2021/01/29 03:51:19;;;;;;;40.15;6.63;;;9.90;99.90;;;;;;5032091;28;20139;-59
2021/01/29 03:53:59;;;;;;;38.47;6.88;;;9.90;99.90;;;;;;5031151;28;20037;-58
2021/01/29 03:56:46;;;;;;;38.08;6.07;;;9.80;99.90;;;;;;5037503;28;20064;-58
2021/01/29 03:59:26;;;;;;;37.88;6.22;;;9.80;99.90;;;;;;5041641;28;20033;-57
2021/01/29 04:02:29;;;;;;;47.45;6.63;;;9.70;99.90;;;;;;5032007;28;20030;-57
2021/01/29 04:05:07;;;;;;;48.08;6.95;;;9.70;99.90;;;;;;5045979;28;20057;-58
2021/01/29 04:07:53;;;;;;;48.65;6.85;;;9.70;99.90;;;;;;5034347;28;20029;-57
2021/01/29 04:10:22;;;;;;;40.10;6.75;;;9.60;99.90;;;;;;5031628;28;20476;-57
2021/01/29 04:12:53;;;;;;;38.15;6.32;;;9.60;99.90;;;;;;5031083;28;20061;-57
2021/01/29 04:15:28;;;;;;;39.28;6.88;;;9.50;99.90;;;;;;5041035;28;20083;-57
2021/01/29 04:18:01;;;;;;;50.57;7.80;;;9.50;99.90;;;;;;5032734;28;20033;-57
2021/01/29 04:20:42;;;;;;;47.88;7.60;;;9.40;99.90;;;;;;5023371;28;20780;-57
2021/01/29 04:23:16;;;;;;;52.10;7.63;;;9.40;99.90;;;;;;5039689;28;20053;-58
2021/01/29 04:25:45;;;;;;;44.97;6.03;;;9.50;99.90;;;;;;5045421;28;20055;-57
2021/01/29 04:28:17;;;;;;;41.35;6.85;;;9.50;99.90;;;;;;5041875;28;20041;-59
2021/01/29 04:30:47;;;;;;;38.35;6.28;;;9.40;99.90;;;;;;5041301;28;20525;-57
2021/01/29 04:33:17;;;;;;;38.95;6.57;;;9.50;99.90;;;;;;5034178;28;20112;-59
2021/01/29 04:35:43;;;;;;;41.25;6.75;;;9.40;99.90;;;;;;5036154;28;20037;-59
2021/01/29 04:38:22;;;;;;;41.33;6.82;;;9.40;99.90;;;;;;5042111;28;20033;-59
2021/01/29 04:40:57;;;;;;;42.90;6.75;;;9.30;99.90;;;;;;5033975;28;20083;-58
2021/01/29 04:43:46;;;;;;;33.92;6.35;;;9.30;99.90;;;;;;5034450;28;20040;-58
2021/01/29 04:46:20;;;;;;;37.40;6.03;;;9.30;99.90;;;;;;5040858;28;20033;-57
2021/01/29 04:49:14;;;;;;;37.10;6.38;;;9.30;99.90;;;;;;5037870;28;20029;-58
2021/01/29 04:52:14;;;;;;;42.08;6.90;;;9.20;99.90;;;;;;5036282;28;20322;-57
2021/01/29 04:54:59;;;;;;;33.15;6.32;;;9.20;99.90;;;;;;5033656;28;20040;-59
2021/01/29 04:57:46;;;;;;;48.63;6.97;;;9.20;99.90;;;;;;5035376;28;20483;-58
2021/01/29 05:00:12;;;;;;;43.70;7.18;;;9.20;99.90;;;;;;5015172;28;20041;-60
2021/01/29 05:03:16;;;;;;;41.38;6.47;;;9.10;99.90;;;;;;5048202;28;20032;-57
2021/01/29 05:05:59;;;;;;;50.80;7.75;;;9.00;99.90;;;;;;5013870;28;20041;-56
2021/01/29 05:08:31;;;;;;;45.65;7.10;;;9.10;99.90;;;;;;5031046;28;20033;-58
2021/01/29 05:11:34;;;;;;;48.67;8.00;;;9.10;99.90;;;;;;5035690;28;20446;-57
2021/01/29 05:14:37;;;;;;;46.55;7.50;;;9.10;99.90;;;;;;5014969;28;20041;-60
2021/01/29 05:17:12;;;;;;;44.08;7.40;;;9.00;99.90;;;;;;5038342;28;20037;-58
2021/01/29 05:20:25;;;;;;;47.83;7.57;;;9.00;99.90;;;;;;5022990;28;20364;-58
2021/01/29 05:23:22;;;;;;;50.22;8.20;;;9.00;99.90;;;;;;5051986;28;20406;-60
2021/01/29 05:25:48;;;;;;;47.45;7.88;;;9.10;99.90;;;;;;5011246;28;20049;-60
2021/01/29 05:28:19;;;;;;;43.38;7.03;;;9.10;99.90;;;;;;5048981;28;20038;-60
2021/01/29 05:30:59;;;;;;;49.25;6.82;;;9.10;99.90;;;;;;5033994;28;21822;-58
2021/01/29 05:33:53;;;;;;;50.97;7.97;;;9.10;99.90;;;;;;5028655;28;20557;-58
2021/01/29 05:36:50;;;;;;;47.78;7.45;;;9.20;99.90;;;;;;5024414;28;20076;-57
2021/01/29 05:39:39;;;;;;;49.22;7.22;;;9.20;99.90;;;;;;5049213;28;20136;-59
2021/01/29 05:42:38;;;;;;;53.92;7.90;;;9.20;99.90;;;;;;5034246;28;20053;-57
2021/01/29 05:45:28;;;;;;;52.58;7.53;;;9.20;99.90;;;;;;5037236;28;20037;-58
2021/01/29 05:48:12;;;;;;;42.03;6.85;;;9.20;99.90;;;;;;5034050;28;20037;-60
2021/01/29 05:50:50;;;;;;;46.53;7.50;;;9.20;99.90;;;;;;5033795;28;20048;-59
2021/01/29 05:53:55;;;;;;;44.42;7.43;;;9.20;99.90;;;;;;5013602;28;20057;-58
2021/01/29 05:56:46;;;;;;;47.75;7.90;;;9.20;99.90;;;;;;5031234;28;20515;-60
2021/01/29 05:59:37;;;;;;;50.63;6.88;;;9.10;99.90;;;;;;5031533;28;20403;-58
2021/01/29 06:02:21;;;;;;;36.22;5.82;;;9.10;99.90;;;;;;5033115;28;20042;-58
2021/01/29 06:04:56;;;;;;;40.90;5.88;;;9.10;99.90;;;;;;5032677;28;20029;-56
2021/01/29 06:07:55;;;;;;;36.88;5.68;;;9.10;99.90;;;;;;5031791;28;20745;-59
2021/01/29 06:10:49;;;;;;;37.83;6.45;;;9.10;99.90;;;;;;5032949;28;20139;-59
2021/01/29 06:13:42;;;;;;;43.97;6.07;;;9.30;99.90;;;;;;5036390;28;20091;-58
2021/01/29 06:16:32;;;;;;;43.35;7.07;;;9.30;99.90;;;;;;5035027;28;20061;-60
2021/01/29 06:19:31;;;;;;;45.55;6.78;;;9.30;99.90;;;;;;5038525;28;20025;-60
2021/01/29 06:22:00;;;;;;;36.88;5.97;;;9.30;99.90;;;;;;5013749;28;20468;-59
2021/01/29 06:24:44;;;;;;;39.65;6.38;;;9.20;99.90;;;;;;5030756;28;20108;-58
2021/01/29 06:27:43;;;;;;;45.38;7.30;;;9.30;99.90;;;;;;5039612;28;20033;-59
2021/01/29 06:30:26;;;;;;;46.40;7.05;;;9.20;99.90;;;;;;5042451;28;20065;-58
2021/01/29 06:32:57;;;;;;;59.38;7.47;;;9.20;99.90;;;;;;5034173;28;20060;-57
2021/01/29 06:35:36;;;;;;;34.13;5.75;;;9.20;99.90;;;;;;5031594;28;20062;-58
2021/01/29 06:38:32;;;;;;;41.17;6.90;;;9.20;99.90;;;;;;5032078;28;20033;-58
2021/01/29 06:41:03;;;;;;;34.85;5.40;;;9.20;99.90;;;;;;5031851;28;20034;-59
2021/01/29 06:43:52;;;;;;;39.72;6.68;;;9.20;99.90;;;;;;5029831;28;20038;-59
2021/01/29 06:46:29;;;;;;;48.28;7.03;;;9.20;99.90;;;;;;5036507;28;20380;-59
2021/01/29 06:48:58;;;;;;;48.90;6.53;;;9.20;99.90;;;;;;5032998;28;20064;-60
2021/01/29 06:51:52;;;;;;;37.95;6.18;;;9.20;99.90;;;;;;5038764;28;20040;-58
2021/01/29 06:54:20;;;;;;;40.95;6.30;;;9.20;99.90;;;;;;5036263;28;20032;-60
2021/01/29 06:57:10;;;;;;;42.47;6.72;;;9.30;99.90;;;;;;5049662;28;20543;-59
2021/01/29 06:59:54;;;;;;;53.22;14.52;;;9.30;99.90;;;;;;5023366;28;20054;-60
2021/01/29 07:02:35;;;;;;;37.63;6.47;;;9.30;99.90;;;;;;5031020;28;20029;-59
2021/01/29 07:05:09;;;;;;;37.92;5.45;;;9.30;99.90;;;;;;5022661;28;20068;-56
2021/01/29 07:07:55;;;;;;;39.22;6.15;;;9.30;99.90;;;;;;5036058;28;20033;-58
2021/01/29 07:10:26;;;;;;;33.55;4.97;;;9.30;99.90;;;;;;5049750;28;20042;-57
2021/01/29 07:12:55;;;;;;;35.03;5.82;;;9.30;99.90;;;;;;5040027;28;20068;-58
2021/01/29 07:15:39;;;;;;;28.17;5.47;;;9.30;99.90;;;;;;5033226;28;20026;-59
2021/01/29 07:18:33;;;;;;;35.47;6.45;;;9.30;99.90;;;;;;5032028;28;20079;-57
2021/01/29 07:21:30;;;;;;;32.25;5.32;;;9.30;99.90;;;;;;5036403;28;20086;-61
2021/01/29 07:24:14;;;;;;;30.60;5.72;;;9.30;99.90;;;;;;5025535;28;20449;-60
2021/01/29 07:27:10;;;;;;;29.98;5.05;;;9.30;99.90;;;;;;5032499;28;20029;-56
2021/01/29 07:29:46;;;;;;;34.78;5.40;;;9.30;99.90;;;;;;5027556;28;20418;-57
2021/01/29 07:32:18;;;;;;;30.67;5.20;;;9.30;99.90;;;;;;5031238;28;20537;-58
2021/01/29 07:35:04;;;;;;;34.45;4.93;;;9.30;99.90;;;;;;5022012;28;20119;-58
2021/01/29 07:37:54;;;;;;;32.05;5.43;;;9.30;99.90;;;;;;5033160;28;20033;-57
2021/01/29 07:40:41;;;;;;;29.95;5.03;;;9.30;99.90;;;;;;5036292;28;20036;-57
2021/01/29 07:43:24;;;;;;;29.38;4.85;;;9.30;99.90;;;;;;5039208;28;20541;-59
2021/01/29 07:46:11;;;;;;;38.22;5.82;;;9.30;99.90;;;;;;5036036;28;20105;-58
2021/01/29 07:49:04;;;;;;;30.75;5.75;;;9.20;99.90;;;;;;5043106;28;20038;-57
2021/01/29 07:51:36;;;;;;;32.00;5.32;;;9.30;99.90;;;;;;5032415;28;20490;-57
2021/01/29 07:54:30;;;;;;;25.38;4.28;;;9.30;99.90;;;;;;5039384;28;20029;-59
2021/01/29 07:57:32;;;;;;;31.73;4.78;;;9.30;99.90;;;;;;5036819;28;20032;-57
2021/01/29 08:00:12;;;;;;;34.03;4.88;;;9.30;99.90;;;;;;5032226;28;20384;-56
2021/01/29 08:03:18;;;;;;;34.47;4.85;;;9.30;99.90;;;;;;5036842;28;21542;-58
2021/01/29 08:06:03;;;;;;;28.80;4.68;;;9.20;99.90;;;;;;5038984;28;20095;-55
2021/01/29 08:08:36;;;;;;;38.03;5.50;;;9.20;99.90;;;;;;5035787;28;20028;-58
2021/01/29 08:11:04;;;;;;;34.53;5.13;;;9.20;99.90;;;;;;5023947;28;20025;-57
2021/01/29 08:13:59;;;;;;;38.03;4.78;;;9.20;99.90;;;;;;5031429;28;20125;-57
2021/01/29 08:16:49;;;;;;;25.02;4.40;;;9.10;99.90;;;;;;5029326;28;20017;-58
2021/01/29 08:19:46;;;;;;;30.60;4.85;;;9.10;99.90;;;;;;5037860;28;20033;-58
2021/01/29 08:22:36;;;;;;;33.08;4.93;;;9.10;99.90;;;;;;5029917;28;20116;-58
2021/01/29 08:25:32;;;;;;;27.38;5.55;;;9.00;99.90;;;;;;5034750;28;20052;-57
2021/01/29 08:28:17;;;;;;;27.88;5.28;;;9.00;99.90;;;;;;5045749;28;20406;-60
2021/01/29 08:31:19;;;;;;;28.90;4.45;;;9.10;99.90;;;;;;5030632;28;20097;-59
2021/01/29 08:34:15;;;;;;;28.95;4.28;;;9.10;99.90;;;;;;5030350;28;20483;-60
2021/01/29 08:37:15;;;;;;;22.85;4.38;;;9.20;99.90;;;;;;5035974;28;20083;-59
2021/01/29 08:40:17;;;;;;;22.17;4.38;;;9.10;99.90;;;;;;5029933;28;20029;-61
2021/01/29 08:43:07;;;;;;;33.13;5.22;;;9.10;99.90;;;;;;5042987;28;20120;-61
2021/01/29 08:45:55;;;;;;;33.05;4.78;;;9.00;99.90;;;;;;5028563;28;20133;-59
2021/01/29 08:48:39;;;;;;;24.67;4.82;;;9.10;99.90;;;;;;5032599;28;20033;-58
2021/01/29 08:51:29;;;;;;;28.35;5.25;;;9.30;99.90;;;;;;5034033;28;20036;-59
2021/01/29 08:54:15;;;;;;;28.02;4.55;;;9.30;99.90;;;;;;5030652;28;20060;-59
2021/01/29 08:56:56;;;;;;;22.95;4.25;;;9.30;99.90;;;;;;5027402;28;20048;-58
2021/01/29 08:59:29;;;;;;;23.75;5.00;;;9.30;99.90;;;;;;5033446;28;20069;-58
2021/01/29 09:02:32;;;;;;;33.13;4.88;;;9.40;99.90;;;;;;5037337;28;20036;-60
2021/01/29 09:05:05;;;;;;;28.33;3.83;;;9.40;99.90;;;;;;5038167;28;20026;-60
2021/01/29 09:07:34;;;;;;;17.38;3.17;;;9.50;99.90;;;;;;5039580;28;20040;-58
2021/01/29 09:10:31;;;;;;;20.13;3.72;;;9.50;99.90;;;;;;5041816;28;20090;-58
2021/01/29 09:13:04;;;;;;;24.20;4.38;;;9.50;99.90;;;;;;5029070;28;20079;-58
2021/01/29 09:15:42;;;;;;;22.67;3.60;;;9.50;99.90;;;;;;5035717;28;20029;-59
2021/01/29 09:18:24;;;;;;;22.15;3.97;;;9.50;99.90;;;;;;5041836;28;20048;-59
2021/01/29 09:21:05;;;;;;;24.67;3.83;;;9.50;99.90;;;;;;5037563;28;20037;-58
2021/01/29 09:23:49;;;;;;;20.17;3.55;;;9.50;99.90;;;;;;5034003;28;20475;-59
2021/01/29 09:26:27;;;;;;;17.00;3.30;;;9.50;99.90;;;;;;5032032;28;20037;-59
2021/01/29 09:29:28;;;;;;;17.80;3.40;;;9.50;99.90;;;;;;5036406;28;20383;-60
2021/01/29 09:32:03;;;;;;;21.23;3.55;;;9.50;99.90;;;;;;5030228;28;20045;-58
2021/01/29 09:34:42;;;;;;;20.90;3.65;;;9.60;99.90;;;;;;5031975;28;20067;-58
2021/01/29 09:37:13;;;;;;;18.45;3.22;;;9.70;99.90;;;;;;5030539;28;20041;-59
2021/01/29 09:39:50;;;;;;;22.77;6.30;;;9.80;99.90;;;;;;5043663;28;20043;-59
2021/01/29 09:42:32;;;;;;;18.88;3.67;;;9.80;99.90;;;;;;5037926;28;20032;-58
2021/01/29 09:45:06;;;;;;;17.60;3.33;;;9.80;99.90;;;;;;5043258;28;20021;-58
2021/01/29 09:47:40;;;;;;;20.88;4.53;;;9.90;99.90;;;;;;5032723;28;20186;-59
2021/01/29 09:50:09;;;;;;;22.52;3.65;;;9.90;99.90;;;;;;5031730;28;20030;-58
2021/01/29 09:53:06;;;;;;;17.42;3.92;;;9.90;99.90;;;;;;5038487;28;20083;-59
2021/01/29 09:55:34;;;;;;;22.90;3.58;;;10.00;99.90;;;;;;5029908;28;20029;-59
2021/01/29 09:58:15;;;;;;;17.60;3.83;;;10.10;99.90;;;;;;5032360;28;20514;-60
2021/01/29 10:00:44;;;;;;;18.40;4.03;;;10.00;99.90;;;;;;5030671;28;20471;-59
2021/01/29 10:03:44;;;;;;;16.17;3.03;;;9.90;99.90;;;;;;5037742;28;20124;-58
2021/01/29 10:06:30;;;;;;;15.70;3.03;;;9.90;99.90;;;;;;5031635;28;20057;-59
2021/01/29 10:09:00;;;;;;;17.40;3.47;;;9.90;99.90;;;;;;5036168;28;20443;-58
2021/01/29 10:11:48;;;;;;;20.38;3.08;;;9.90;99.90;;;;;;5035898;28;20455;-59
2021/01/29 10:14:43;;;;;;;12.38;3.10;;;9.90;99.90;;;;;;5033412;28;20028;-58
2021/01/29 10:17:23;;;;;;;18.05;2.72;;;9.90;99.90;;;;;;5027727;28;20046;-59
2021/01/29 10:20:12;;;;;;;14.10;2.72;;;10.00;99.90;;;;;;5049929;28;20123;-58
2021/01/29 10:23:04;;;;;;;22.60;3.80;;;10.00;99.90;;;;;;5043268;28;20470;-58
2021/01/29 10:25:57;;;;;;;14.60;2.83;;;10.00;99.90;;;;;;5038578;28;20131;-58
2021/01/29 10:28:50;;;;;;;13.90;2.60;;;10.00;99.90;;;;;;5019622;28;20446;-58
2021/01/29 10:31:22;;;;;;;13.00;2.65;;;10.00;99.90;;;;;;5032901;28;20064;-58
2021/01/29 10:33:58;;;;;;;15.10;2.60;;;10.00;99.90;;;;;;5041559;28;20107;-58
2021/01/29 10:36:33;;;;;;;12.70;2.70;;;10.00;99.90;;;;;;5039102;28;20061;-59
2021/01/29 10:39:02;;;;;;;17.13;3.22;;;10.00;99.90;;;;;;5040484;28;20038;-59
2021/01/29 10:41:46;;;;;;;19.02;3.10;;;9.90;99.90;;;;;;5032676;28;20398;-59
2021/01/29 10:44:21;;;;;;;15.68;2.50;;;9.90;99.90;;;;;;5023808;28;20433;-57
2021/01/29 10:46:49;;;;;;;19.08;5.28;;;10.00;99.90;;;;;;5031588;28;20036;-58
2021/01/29 10:49:38;;;;;;;16.58;2.80;;;10.00;99.90;;;;;;5043270;28;20033;-58
2021/01/29 10:52:32;;;;;;;11.60;2.53;;;10.00;99.90;;;;;;5036418;28;20144;-60
2021/01/29 10:54:58;;;;;;;16.90;2.72;;;9.90;99.90;;;;;;5030395;28;20025;-59
2021/01/29 10:57:39;;;;;;;15.43;2.67;;;9.90;99.90;;;;;;5026112;28;20083;-59
2021/01/29 11:00:08;;;;;;;19.75;3.28;;;9.90;99.90;;;;;;5032182;28;20036;-60
2021/01/29 11:02:36;;;;;;;15.05;2.30;;;10.00;99.90;;;;;;5033423;28;20516;-59
2021/01/29 11:05:12;;;;;;;11.68;2.50;;;10.10;99.90;;;;;;5039288;28;20037;-60
2021/01/29 11:07:42;;;;;;;12.82;2.35;;;10.20;99.90;;;;;;5040834;28;20033;-60
2021/01/29 11:10:33;;;;;;;20.52;3.28;;;10.30;99.90;;;;;;5023951;28;20034;-59
2021/01/29 11:13:11;;;;;;;14.18;2.90;;;10.40;99.90;;;;;;5038102;28;20104;-60
2021/01/29 11:16:01;;;;;;;21.55;4.78;;;10.30;99.90;;;;;;5037212;28;20028;-60
2021/01/29 11:18:31;;;;;;;13.90;3.40;;;10.30;99.90;;;;;;5030905;28;20486;-59
2021/01/29 11:21:19;;;;;;;15.48;2.90;;;10.40;99.90;;;;;;5037179;28;20036;-57
2021/01/29 11:24:22;;;;;;;15.52;2.70;;;10.40;99.90;;;;;;5037819;28;20482;-59
2021/01/29 11:27:12;;;;;;;14.18;3.03;;;10.50;99.90;;;;;;5036749;28;20387;-58
2021/01/29 11:29:43;;;;;;;9.82;2.60;;;10.50;99.90;;;;;;5033469;28;20033;-58
2021/01/29 11:32:32;;;;;;;14.00;2.45;;;10.60;99.90;;;;;;5047678;28;20110;-60
2021/01/29 11:35:36;;;;;;;14.30;3.13;;;10.50;99.90;;;;;;5043884;28;20428;-60
2021/01/29 11:38:38;;;;;;;13.15;2.78;;;10.50;99.90;;;;;;5042730;28;20526;-59
2021/01/29 11:41:30;;;;;;;14.45;2.67;;;10.50;99.90;;;;;;5038063;28;20128;-58
2021/01/29 11:44:09;;;;;;;10.63;2.50;;;10.50;99.90;;;;;;5019066;28;20403;-60
2021/01/29 11:46:46;;;;;;;13.48;2.70;;;10.50;99.90;;;;;;5033436;28;20475;-59
2021/01/29 11:49:21;;;;;;;18.00;3.05;;;10.40;99.90;;;;;;5041864;28;20040;-59
2021/01/29 11:51:53;;;;;;;15.43;2.65;;;10.40;99.90;;;;;;5035454;28;20554;-58
2021/01/29 11:54:39;;;;;;;14.18;3.00;;;10.50;99.90;;;;;;5020335;28;20418;-60
2021/01/29 11:57:22;;;;;;;15.52;4.03;;;10.50;99.90;;;;;;5033292;28;20029;-60
2021/01/29 12:00:06;;;;;;;13.98;2.88;;;10.50;99.90;;;;;;5043934;28;20033;-60
2021/01/29 12:02:40;;;;;;;14.15;2.90;;;10.60;99.90;;;;;;5039092;28;20063;-58
2021/01/29 12:05:24;;;;;;;14.32;3.25;;;10.70;99.90;;;;;;5043953;28;20174;-59
2021/01/29 12:08:06;;;;;;;14.07;3.07;;;10.70;99.90;;;;;;5029421;28;20052;-60
2021/01/29 12:10:51;;;;;;;18.30;4.10;;;10.80;99.90;;;;;;5031722;28;20276;-58
2021/01/29 12:13:18;;;;;;;16.02;3.30;;;10.80;99.90;;;;;;5037541;28;20086;-60
2021/01/29 12:16:08;;;;;;;18.83;3.67;;;10.80;99.90;;;;;;5041347;28;20055;-60
2021/01/29 12:18:36;;;;;;;16.95;3.13;;;10.80;99.90;;;;;;5037063;28;20040;-60
2021/01/29 12:21:23;;;;;;;14.43;3.33;;;10.90;99.90;;;;;;5030816;28;20148;-58
2021/01/29 12:24:27;;;;;;;13.55;2.95;;;10.90;99.90;;;;;;5038873;28;20440;-59
2021/01/29 12:27:11;;;;;;;21.13;3.45;;;10.80;99.90;;;;;;5035217;28;20471;-58
2021/01/29 12:29:47;;;;;;;18.27;3.30;;;10.90;99.90;;;;;;5035078;28;20037;-60
2021/01/29 12:32:21;;;;;;;16.35;3.72;;;10.90;99.90;;;;;;5039361;28;20079;-59
2021/01/29 12:35:04;;;;;;;13.90;3.22;;;10.90;99.90;;;;;;5037906;28;20368;-59
2021/01/29 12:37:40;;;;;;;19.65;3.08;;;10.90;99.90;;;;;;5039574;28;20029;-58
2021/01/29 12:40:14;;;;;;;17.63;3.70;;;11.00;99.90;;;;;;5040685;28;20033;-58
2021/01/29 12:42:54;;;;;;;15.30;2.63;;;10.90;99.90;;;;;;5041214;28;20498;-58
2021/01/29 12:45:30;;;;;;;18.80;3.15;;;10.80;99.90;;;;;;5034791;28;20463;-59
2021/01/29 12:48:22;;;;;;;17.60;3.30;;;10.80;99.90;;;;;;5065013;28;20418;-59
2021/01/29 12:51:07;;;;;;;23.05;3.67;;;10.80;99.90;;;;;;5045109;28;20076;-59
2021/01/29 12:53:48;;;;;;;17.70;3.13;;;10.80;99.90;;;;;;5052530;28;20025;-58
2021/01/29 12:56:19;;;;;;;28.90;3.72;;;10.80;99.90;;;;;;5034845;28;20051;-60
2021/01/29 12:58:55;;;;;;;17.38;3.13;;;10.80;99.90;;;;;;5034260;28;20034;-58
2021/01/29 13:01:36;;;;;;;20.90;3.25;;;10.80;99.90;;;;;;5033468;28;20037;-59
2021/01/29 13:04:14;;;;;;;19.92;3.65;;;10.80;99.90;;;;;;5015807;28;20740;-58
2021/01/29 13:07:11;;;;;;;17.70;3.15;;;10.80;99.90;;;;;;5037642;28;20029;-58
2021/01/29 13:09:47;;;;;;;19.83;3.28;;;10.90;99.90;;;;;;5032476;28;20395;-59
2021/01/29 13:12:37;;;;;;;19.95;3.35;;;10.90;99.90;;;;;;5020997;28;20394;-59
2021/01/29 13:15:31;;;;;;;18.75;3.67;;;10.90;99.90;;;;;;5034205;28;20108;-58
2021/01/29 13:18:34;;;;;;;26.80;4.00;;;10.80;99.90;;;;;;5028483;28;20037;-59
2021/01/29 13:21:08;;;;;;;16.00;2.97;;;10.80;99.90;;;;;;5034571;28;20047;-59
2021/01/29 13:23:34;;;;;;;13.38;3.42;;;10.80;99.90;;;;;;5035853;28;20033;-58
2021/01/29 13:26:04;;;;;;;25.65;3.25;;;10.90;99.90;;;;;;5036838;28;20044;-59
2021/01/29 13:28:37;;;;;;;18.65;3.42;;;11.00;99.90;;;;;;5026651;28;20029;-60
2021/01/29 13:31:30;;;;;;;23.42;3.92;;;11.00;99.90;;;;;;5030817;28;20049;-60
2021/01/29 13:34:00;;;;;;;22.50;3.53;;;11.00;99.90;;;;;;5035218;28;20037;-60
2021/01/29 13:36:29;;;;;;;22.52;3.90;;;11.00;99.90;;;;;;5034120;28;20049;-59
2021/01/29 13:39:14;;;;;;;25.98;3.78;;;11.00;99.90;;;;;;5033415;28;20434;-60
2021/01/29 13:41:53;;;;;;;13.25;3.80;;;11.00;99.90;;;;;;5033903;28;20039;-60
2021/01/29 13:44:56;;;;;;;17.92;3.03;;;10.80;99.90;;;;;;5035101;28;20036;-58
2021/01/29 13:47:35;;;;;;;20.67;3.78;;;10.70;99.90;;;;;;4999474;28;20042;-59
2021/01/29 13:50:23;;;;;;;15.73;3.40;;;10.70;99.90;;;;;;5036811;28;20045;-58